Time;durP1;ratioP1;P1;durP2;ratioP2;P2;SDS_P1;SDS_P2;PMS_P1;PMS_P2;Temp;Humidity;BMP_temperature;BMP_pressure;BME280_temperature;BME280_humidity;BME280_pressure;Samples;Min_cycle;Max_cycle;Signal;HPM_P1;HPM_P2
2021/03/22 00:00:57;;;;;;;17.23;4.03;;;5.00;99.90;;;;;;5081748;28;20783;-89
2021/03/22 00:03:26;;;;;;;20.57;2.97;;;5.10;99.90;;;;;;5083491;28;20236;-91
2021/03/22 00:05:53;;;;;;;20.90;3.50;;;5.00;99.90;;;;;;5084330;28;20221;-91
2021/03/22 00:08:21;;;;;;;19.93;3.60;;;5.00;99.90;;;;;;5088672;28;20296;-91
2021/03/22 00:10:48;;;;;;;22.27;3.70;;;5.00;99.90;;;;;;5093514;28;20213;-90
2021/03/22 00:13:16;;;;;;;16.30;3.63;;;5.10;99.90;;;;;;5086776;28;20206;-91
2021/03/22 00:15:43;;;;;;;13.73;3.30;;;5.00;99.90;;;;;;5086337;28;20292;-92
2021/03/22 00:18:13;;;;;;;19.33;3.23;;;5.10;99.90;;;;;;5094172;28;20210;-93
2021/03/22 00:20:41;;;;;;;16.83;3.23;;;5.00;99.90;;;;;;5082049;28;20277;-92
2021/03/22 00:23:08;;;;;;;15.33;3.60;;;5.00;99.90;;;;;;5087604;28;20590;-93
2021/03/22 00:25:34;;;;;;;21.03;3.87;;;5.10;99.90;;;;;;5092742;28;20709;-91
2021/03/22 00:28:02;;;;;;;18.00;3.50;;;5.10;99.90;;;;;;5083718;28;20209;-92
2021/03/22 00:30:31;;;;;;;23.00;3.90;;;5.10;99.90;;;;;;5086431;28;20206;-92
2021/03/22 00:32:58;;;;;;;15.63;4.17;;;5.10;99.90;;;;;;5087336;28;20256;-94
2021/03/22 00:35:25;;;;;;;14.50;2.83;;;5.00;99.90;;;;;;5083301;28;20252;-93
2021/03/22 00:37:53;;;;;;;24.27;4.10;;;5.00;99.90;;;;;;5082067;28;20234;-93
2021/03/22 00:40:23;;;;;;;15.90;3.97;;;5.10;99.90;;;;;;5083683;28;20209;-91
2021/03/22 00:42:50;;;;;;;19.10;3.40;;;5.00;99.90;;;;;;5083039;28;20229;-92
2021/03/22 00:45:18;;;;;;;19.07;3.30;;;5.00;99.90;;;;;;5082120;28;20237;-91
2021/03/22 00:47:46;;;;;;;17.60;3.60;;;5.00;99.90;;;;;;5094232;28;20308;-90
2021/03/22 00:50:20;;;;;;;17.73;3.20;;;5.00;99.90;;;;;;5086130;28;20554;-89
2021/03/22 00:52:46;;;;;;;18.60;3.13;;;5.00;99.90;;;;;;5089034;28;20241;-90
2021/03/22 00:55:14;;;;;;;20.23;4.10;;;5.00;99.90;;;;;;5088922;28;20292;-91
2021/03/22 00:57:40;;;;;;;19.17;3.57;;;5.00;99.90;;;;;;5091375;28;20703;-92
2021/03/22 01:00:09;;;;;;;17.97;3.10;;;5.00;99.90;;;;;;5087658;28;20328;-90
2021/03/22 01:02:35;;;;;;;21.73;4.20;;;5.00;99.90;;;;;;5087434;28;20312;-91
2021/03/22 01:05:03;;;;;;;16.13;3.40;;;5.00;99.90;;;;;;5087982;28;20280;-90
2021/03/22 01:07:33;;;;;;;20.00;3.37;;;5.00;99.90;;;;;;5085072;28;20297;-92
2021/03/22 01:09:59;;;;;;;20.27;3.63;;;4.90;99.90;;;;;;5089381;28;20273;-91
2021/03/22 01:12:27;;;;;;;16.80;5.07;;;4.90;99.90;;;;;;5089749;28;20225;-91
2021/03/22 01:14:53;;;;;;;18.77;3.70;;;5.00;99.90;;;;;;5091563;28;20213;-91
2021/03/22 01:17:19;;;;;;;15.00;3.43;;;4.90;99.90;;;;;;5086139;28;20344;-92
2021/03/22 01:19:46;;;;;;;18.93;4.13;;;4.90;99.90;;;;;;5088470;28;20206;-92
2021/03/22 01:22:12;;;;;;;13.80;3.50;;;4.90;99.90;;;;;;5097972;28;20299;-93
2021/03/22 01:24:39;;;;;;;20.87;3.10;;;5.00;99.90;;;;;;5094982;28;20297;-92
2021/03/22 01:27:08;;;;;;;18.43;3.60;;;4.90;99.90;;;;;;5094021;28;20769;-91
2021/03/22 01:29:39;;;;;;;21.73;4.03;;;4.90;99.90;;;;;;5087759;28;20241;-91
2021/03/22 01:32:07;;;;;;;18.90;3.67;;;4.90;99.90;;;;;;5090646;28;20573;-91
2021/03/22 01:34:34;;;;;;;15.80;3.93;;;5.00;99.90;;;;;;5089158;28;20233;-92
2021/03/22 01:37:01;;;;;;;24.67;4.80;;;5.00;99.90;;;;;;5084847;28;20292;-90
2021/03/22 01:39:32;;;;;;;17.10;4.10;;;4.90;99.90;;;;;;5088873;28;20225;-91
2021/03/22 01:42:09;;;;;;;19.70;3.47;;;4.90;99.90;;;;;;5079418;28;20714;-92
2021/03/22 01:44:39;;;;;;;21.43;4.47;;;4.90;99.90;;;;;;5090215;28;20343;-91
2021/03/22 01:47:08;;;;;;;15.43;3.87;;;4.90;99.90;;;;;;5092723;28;20601;-91
2021/03/22 01:49:40;;;;;;;16.13;3.33;;;4.90;99.90;;;;;;5085603;28;20690;-89
2021/03/22 01:52:08;;;;;;;24.57;3.97;;;4.90;99.90;;;;;;5089550;28;20304;-91
2021/03/22 01:54:35;;;;;;;22.23;4.27;;;4.90;99.90;;;;;;5089921;28;20644;-91
2021/03/22 01:57:31;;;;;;;22.23;4.30;;;4.90;99.90;;;;;;5078939;28;20210;-92
2021/03/22 02:00:12;;;;;;;20.07;3.63;;;4.90;99.90;;;;;;5081930;28;20305;-92
2021/03/22 02:02:40;;;;;;;18.63;3.70;;;4.90;99.90;;;;;;5091896;28;20256;-92
2021/03/22 02:05:09;;;;;;;18.97;3.97;;;5.00;99.90;;;;;;5090971;28;20292;-90
2021/03/22 02:07:36;;;;;;;20.00;3.73;;;4.90;99.90;;;;;;5088290;28;20578;-91
2021/03/22 02:10:04;;;;;;;17.97;4.63;;;4.90;99.90;;;;;;5085469;28;20655;-89
2021/03/22 02:12:31;;;;;;;21.33;3.53;;;5.00;99.90;;;;;;5097265;28;20218;-91
2021/03/22 02:14:58;;;;;;;23.50;4.70;;;4.90;99.90;;;;;;5089378;28;20626;-91
2021/03/22 02:17:33;;;;;;;18.13;3.53;;;4.90;99.90;;;;;;5091034;28;20260;-91
2021/03/22 02:20:42;;;;;;;16.77;3.00;;;4.90;99.90;;;;;;5087148;28;20291;-91
2021/03/22 02:23:50;;;;;;;14.87;3.77;;;4.90;99.90;;;;;;5087605;28;20225;-91
2021/03/22 02:26:49;;;;;;;20.63;3.43;;;4.90;99.90;;;;;;5078143;28;20593;-91
2021/03/22 02:29:43;;;;;;;17.87;3.20;;;4.90;99.90;;;;;;5062393;28;20241;-91
2021/03/22 02:32:31;;;;;;;17.97;3.20;;;5.00;99.90;;;;;;5082773;28;20221;-89
2021/03/22 02:35:00;;;;;;;16.30;2.97;;;5.00;99.90;;;;;;5086178;28;20697;-90
2021/03/22 02:37:40;;;;;;;18.60;3.07;;;5.10;99.90;;;;;;5088490;28;20216;-90
2021/03/22 02:40:23;;;;;;;11.17;3.13;;;5.00;99.90;;;;;;5085652;28;20204;-90
2021/03/22 02:42:50;;;;;;;16.87;3.27;;;5.00;99.90;;;;;;5096416;28;20221;-92
2021/03/22 02:45:23;;;;;;;14.80;3.40;;;5.00;99.90;;;;;;5097848;28;20197;-92
2021/03/22 02:47:49;;;;;;;14.87;2.90;;;5.00;99.90;;;;;;5090119;28;20197;-92
2021/03/22 02:50:20;;;;;;;18.73;3.00;;;5.00;99.90;;;;;;5089551;28;20205;-91
2021/03/22 02:53:16;;;;;;;19.37;3.00;;;5.00;99.90;;;;;;5087312;28;20229;-91
2021/03/22 02:56:03;;;;;;;15.13;3.43;;;5.10;99.90;;;;;;5080020;28;20222;-92
2021/03/22 02:58:36;;;;;;;11.77;2.77;;;5.10;99.90;;;;;;5091766;28;20701;-92
2021/03/22 03:01:07;;;;;;;15.20;3.30;;;5.10;99.90;;;;;;5085099;28;20205;-92
2021/03/22 03:03:35;;;;;;;12.10;2.80;;;5.10;99.90;;;;;;5087213;28;20255;-92
2021/03/22 03:06:03;;;;;;;18.97;3.70;;;5.20;99.90;;;;;;5091012;28;20272;-91
2021/03/22 03:08:32;;;;;;;10.90;2.80;;;5.10;99.90;;;;;;5088458;28;20201;-92
2021/03/22 03:10:59;;;;;;;16.70;3.90;;;5.10;99.90;;;;;;5085247;28;20246;-92
2021/03/22 03:13:25;;;;;;;17.33;3.70;;;5.00;99.90;;;;;;5087293;28;20206;-92
2021/03/22 03:15:51;;;;;;;16.57;3.27;;;5.10;99.90;;;;;;5090514;28;20255;-92
2021/03/22 03:18:18;;;;;;;15.70;3.97;;;5.00;99.90;;;;;;5093781;28;20687;-92
2021/03/22 03:20:45;;;;;;;12.90;2.73;;;5.00;99.90;;;;;;5096601;28;20201;-92
2021/03/22 03:23:13;;;;;;;13.00;3.13;;;5.00;99.90;;;;;;5090831;28;20252;-92
2021/03/22 03:25:40;;;;;;;15.50;3.67;;;4.90;99.90;;;;;;5092720;28;20288;-92
2021/03/22 03:30:40;;;;;;;12.17;2.97;;;4.90;99.90;;;;;;5106448;28;20262;-69
2021/03/22 03:33:09;;;;;;;14.97;3.23;;;4.90;99.90;;;;;;5111047;28;20288;-69
2021/03/22 03:35:39;;;;;;;17.10;3.33;;;4.90;99.90;;;;;;5109611;28;20193;-69
2021/03/22 03:38:07;;;;;;;13.23;3.20;;;4.90;99.90;;;;;;5107558;28;20284;-69
2021/03/22 03:40:36;;;;;;;14.93;3.40;;;4.90;99.90;;;;;;5109942;28;20203;-69
2021/03/22 03:43:03;;;;;;;18.63;3.37;;;4.90;99.90;;;;;;5111494;28;20715;-69
2021/03/22 03:45:33;;;;;;;15.47;3.50;;;4.90;99.90;;;;;;5109834;28;20718;-69
2021/03/22 03:47:59;;;;;;;14.63;3.33;;;4.80;99.90;;;;;;5112229;28;20280;-69
2021/03/22 03:50:28;;;;;;;19.77;3.73;;;4.80;99.90;;;;;;5109873;28;20205;-69
2021/03/22 03:52:56;;;;;;;14.73;3.30;;;4.80;99.90;;;;;;5109846;28;20254;-69
2021/03/22 03:55:26;;;;;;;19.60;4.27;;;4.80;99.90;;;;;;5095091;28;20296;-69
2021/03/22 03:57:54;;;;;;;15.53;2.97;;;4.90;99.90;;;;;;5107368;28;20229;-68
2021/03/22 04:00:26;;;;;;;16.90;3.37;;;4.90;99.90;;;;;;5103560;28;20197;-69
2021/03/22 04:02:53;;;;;;;15.47;2.93;;;4.90;99.90;;;;;;5099044;28;20937;-69
2021/03/22 04:05:21;;;;;;;15.57;3.30;;;4.90;99.90;;;;;;5101886;28;20254;-69
2021/03/22 04:07:47;;;;;;;14.93;3.03;;;4.80;99.90;;;;;;5097043;28;20232;-69
2021/03/22 04:10:15;;;;;;;18.60;3.87;;;4.80;99.90;;;;;;5100349;28;20283;-69
2021/03/22 04:12:41;;;;;;;18.13;3.37;;;4.80;99.90;;;;;;5106606;28;20201;-69
2021/03/22 04:15:12;;;;;;;18.73;4.10;;;4.90;99.90;;;;;;5111293;28;20220;-69
2021/03/22 04:17:39;;;;;;;12.17;2.87;;;4.80;99.90;;;;;;5109129;28;20201;-69
2021/03/22 04:20:07;;;;;;;14.23;3.27;;;4.80;99.90;;;;;;5094737;28;20283;-69
2021/03/22 04:22:33;;;;;;;19.43;4.10;;;4.80;99.90;;;;;;5102925;28;20207;-69
2021/03/22 04:25:00;;;;;;;27.10;4.17;;;4.80;99.90;;;;;;5109910;28;20201;-69
2021/03/22 04:27:26;;;;;;;17.47;3.17;;;4.90;99.90;;;;;;5109321;28;20708;-69
2021/03/22 04:29:53;;;;;;;13.03;3.47;;;4.80;99.90;;;;;;5101084;28;20292;-68
2021/03/22 04:32:20;;;;;;;15.13;3.80;;;4.80;99.90;;;;;;5107606;28;20240;-67
2021/03/22 04:34:47;;;;;;;17.37;5.40;;;4.80;99.90;;;;;;5112344;28;20288;-67
2021/03/22 04:37:13;;;;;;;21.10;4.37;;;4.90;99.90;;;;;;5111554;28;20294;-67
2021/03/22 04:39:39;;;;;;;20.10;3.80;;;4.90;99.90;;;;;;5109298;28;20285;-67
2021/03/22 04:42:07;;;;;;;15.90;3.30;;;4.80;99.90;;;;;;5110746;28;20751;-67
2021/03/22 04:44:33;;;;;;;19.13;4.07;;;4.80;99.90;;;;;;5105010;28;20551;-67
2021/03/22 04:47:00;;;;;;;12.60;3.07;;;4.80;99.90;;;;;;5101892;28;20231;-67
2021/03/22 04:49:27;;;;;;;23.87;4.00;;;4.80;99.90;;;;;;5105895;28;20283;-67
2021/03/22 04:51:53;;;;;;;19.73;4.43;;;4.70;99.90;;;;;;5102855;28;20211;-67
2021/03/22 04:54:20;;;;;;;23.50;3.57;;;4.80;99.90;;;;;;5104554;28;20208;-67
2021/03/22 04:56:46;;;;;;;20.60;3.83;;;4.80;99.90;;;;;;5098498;28;20197;-67
2021/03/22 04:59:13;;;;;;;20.73;4.17;;;4.80;99.90;;;;;;5110567;28;20226;-67
2021/03/22 05:01:39;;;;;;;17.67;3.43;;;4.80;99.90;;;;;;5109854;28;20207;-67
2021/03/22 05:04:05;;;;;;;15.93;3.53;;;4.80;99.90;;;;;;5111587;28;20200;-67
2021/03/22 05:06:33;;;;;;;18.57;3.90;;;4.80;99.90;;;;;;5109907;28;20555;-67
2021/03/22 05:08:59;;;;;;;18.60;3.30;;;4.80;99.90;;;;;;5107009;28;20201;-67
2021/03/22 05:11:27;;;;;;;23.20;4.53;;;4.90;99.90;;;;;;5105917;28;20197;-67
2021/03/22 05:13:54;;;;;;;13.40;3.77;;;4.80;99.90;;;;;;5110853;28;20811;-67
2021/03/22 05:16:20;;;;;;;15.23;3.60;;;4.80;99.90;;;;;;5107859;28;20197;-68
2021/03/22 05:18:47;;;;;;;17.03;4.20;;;4.80;99.90;;;;;;5108667;28;20249;-67
2021/03/22 05:21:14;;;;;;;17.87;3.20;;;4.70;99.90;;;;;;5102440;28;20205;-67
2021/03/22 05:23:41;;;;;;;17.10;4.10;;;4.70;99.90;;;;;;5108976;28;20609;-67
2021/03/22 05:26:10;;;;;;;17.67;4.37;;;4.70;99.90;;;;;;5111571;28;20221;-67
2021/03/22 05:28:40;;;;;;;17.50;3.97;;;4.60;99.90;;;;;;5109897;28;20223;-67
2021/03/22 05:31:06;;;;;;;22.23;4.27;;;4.60;99.90;;;;;;5111194;28;20254;-68
2021/03/22 05:33:33;;;;;;;17.80;3.93;;;4.70;99.90;;;;;;5113070;28;20288;-67
2021/03/22 05:36:00;;;;;;;29.03;5.10;;;4.70;99.90;;;;;;5114993;28;20603;-67
2021/03/22 05:38:28;;;;;;;20.43;4.47;;;4.60;99.90;;;;;;5112349;28;20257;-67
2021/03/22 05:40:57;;;;;;;19.10;4.53;;;4.70;99.90;;;;;;5115406;28;20328;-67
2021/03/22 05:43:51;;;;;;;17.80;3.67;;;4.70;99.90;;;;;;5114391;28;20201;-67
2021/03/22 05:46:30;;;;;;;21.83;4.37;;;4.60;99.90;;;;;;5076827;28;20734;-67
2021/03/22 05:49:07;;;;;;;17.47;4.10;;;4.60;99.90;;;;;;5115312;28;20200;-67
2021/03/22 05:51:50;;;;;;;21.80;4.57;;;4.60;99.90;;;;;;5102386;28;20339;-67
2021/03/22 05:54:34;;;;;;;19.93;4.50;;;4.70;99.90;;;;;;5115426;28;20236;-68
2021/03/22 05:57:06;;;;;;;19.83;5.20;;;4.80;99.90;;;;;;5114905;28;20301;-67
2021/03/22 05:59:39;;;;;;;19.17;3.50;;;4.90;99.90;;;;;;5114607;28;20296;-67
2021/03/22 06:02:11;;;;;;;13.90;3.40;;;5.00;99.90;;;;;;5113753;28;20219;-68
2021/03/22 06:04:42;;;;;;;12.73;3.63;;;5.00;99.90;;;;;;5104505;28;20246;-67
2021/03/22 06:07:12;;;;;;;19.03;4.30;;;5.20;99.90;;;;;;5114184;28;20256;-67
2021/03/22 06:09:44;;;;;;;15.27;3.23;;;5.40;99.90;;;;;;5108015;28;20284;-67
2021/03/22 06:12:36;;;;;;;11.10;3.20;;;5.40;99.90;;;;;;5114741;28;20667;-67
2021/03/22 06:15:11;;;;;;;12.23;2.87;;;5.40;99.90;;;;;;5096356;28;20204;-67
2021/03/22 06:17:43;;;;;;;15.77;2.73;;;5.60;99.90;;;;;;5113221;28;20205;-68
2021/03/22 06:20:20;;;;;;;11.83;2.50;;;5.40;99.90;;;;;;5113109;28;20205;-67
2021/03/22 06:22:48;;;;;;;10.50;2.83;;;5.50;99.90;;;;;;5112120;28;20599;-67
2021/03/22 06:25:18;;;;;;;21.20;3.23;;;5.50;99.90;;;;;;5112919;28;20208;-67
2021/03/22 06:27:50;;;;;;;10.83;2.90;;;5.70;99.90;;;;;;5101352;28;20311;-67
2021/03/22 06:30:19;;;;;;;13.77;2.67;;;5.70;99.90;;;;;;5113775;28;20288;-67
2021/03/22 06:32:50;;;;;;;11.20;3.00;;;5.90;99.90;;;;;;5112572;28;20212;-67
2021/03/22 06:35:21;;;;;;;21.83;4.73;;;6.50;99.90;;;;;;5113932;28;20201;-68
2021/03/22 06:37:47;;;;;;;14.90;3.00;;;7.00;99.90;;;;;;5108672;28;20236;-67
2021/03/22 06:40:16;;;;;;;15.83;3.77;;;7.40;99.90;;;;;;5113794;28;20631;-68
2021/03/22 06:43:01;;;;;;;13.57;3.17;;;7.30;99.90;;;;;;5112974;28;20266;-68
2021/03/22 06:45:33;;;;;;;16.67;4.00;;;7.60;99.90;;;;;;5113150;28;20287;-68
2021/03/22 06:48:25;;;;;;;9.77;3.20;;;7.10;99.90;;;;;;5111998;28;20304;-68
2021/03/22 06:50:53;;;;;;;12.63;3.40;;;6.70;99.90;;;;;;5113478;28;20629;-68
2021/03/22 06:53:35;;;;;;;17.23;3.57;;;6.70;99.90;;;;;;5108152;28;20207;-68
2021/03/22 06:56:10;;;;;;;19.07;3.73;;;6.50;99.90;;;;;;5112778;28;20212;-68
2021/03/22 06:58:37;;;;;;;18.43;4.17;;;6.40;99.90;;;;;;5112723;28;20283;-68
2021/03/22 07:01:16;;;;;;;14.10;3.93;;;6.20;99.90;;;;;;5103060;28;20202;-68
2021/03/22 07:03:43;;;;;;;15.33;4.63;;;6.00;99.90;;;;;;5091818;28;20643;-68
2021/03/22 07:06:16;;;;;;;17.20;3.67;;;6.00;99.90;;;;;;5106592;28;20225;-68
2021/03/22 07:08:43;;;;;;;16.53;3.90;;;6.10;99.90;;;;;;5111877;28;20285;-68
2021/03/22 07:11:12;;;;;;;15.70;4.03;;;6.00;99.90;;;;;;5102784;28;20254;-67
2021/03/22 07:13:39;;;;;;;10.90;3.60;;;6.00;99.90;;;;;;5099043;28;20205;-67
2021/03/22 07:16:18;;;;;;;12.40;3.40;;;6.10;99.90;;;;;;5112297;28;20673;-68
2021/03/22 07:19:04;;;;;;;14.50;3.57;;;6.10;99.90;;;;;;5093789;28;20289;-68
2021/03/22 07:21:32;;;;;;;16.30;4.10;;;6.10;99.90;;;;;;5107086;28;20283;-69
2021/03/22 07:24:11;;;;;;;15.07;3.57;;;6.10;99.90;;;;;;5100517;28;20686;-67
2021/03/22 07:26:59;;;;;;;16.17;3.80;;;6.10;99.90;;;;;;5112033;28;20319;-67
2021/03/22 07:29:40;;;;;;;17.33;3.30;;;6.00;99.90;;;;;;5098185;28;20295;-68
2021/03/22 07:32:24;;;;;;;14.20;3.90;;;6.10;99.90;;;;;;5111930;28;20201;-67
2021/03/22 07:35:02;;;;;;;21.17;3.63;;;6.40;99.90;;;;;;5112333;28;20292;-67
2021/03/22 07:37:36;;;;;;;16.70;3.80;;;6.70;99.90;;;;;;5111473;28;20193;-68
2021/03/22 07:40:11;;;;;;;17.70;4.30;;;6.50;99.90;;;;;;5112417;28;20670;-68
2021/03/22 07:42:52;;;;;;;14.80;3.87;;;6.50;99.90;;;;;;5107599;28;20204;-68
2021/03/22 07:45:37;;;;;;;13.90;3.60;;;6.70;99.90;;;;;;5112215;28;20249;-68
2021/03/22 07:48:40;;;;;;;16.97;4.70;;;6.80;99.90;;;;;;5110907;28;20269;-68
2021/03/22 07:51:29;;;;;;;17.70;3.80;;;6.90;99.90;;;;;;5111561;28;20205;-68
2021/03/22 07:54:05;;;;;;;13.57;4.10;;;6.70;99.90;;;;;;5112036;28;20550;-68
2021/03/22 07:56:44;;;;;;;13.47;3.90;;;7.30;99.90;;;;;;5102010;28;20196;-67
2021/03/22 07:59:20;;;;;;;15.33;3.90;;;8.20;99.90;;;;;;5111856;28;20669;-68
2021/03/22 08:02:00;;;;;;;18.13;4.33;;;7.80;99.90;;;;;;5098488;28;20604;-67
2021/03/22 08:04:55;;;;;;;15.30;3.80;;;8.10;99.90;;;;;;5111887;28;20205;-68
2021/03/22 08:07:44;;;;;;;15.40;4.43;;;7.70;99.90;;;;;;5089937;28;20464;-68
2021/03/22 08:10:42;;;;;;;14.20;4.33;;;7.80;99.90;;;;;;5110271;28;20562;-67
2021/03/22 08:13:31;;;;;;;20.00;4.23;;;7.60;99.90;;;;;;5108072;28;20586;-68
2021/03/22 08:16:09;;;;;;;12.10;3.90;;;8.40;99.90;;;;;;5112056;28;20197;-68
2021/03/22 08:18:40;;;;;;;12.63;3.50;;;8.50;99.90;;;;;;5109841;28;20658;-68
2021/03/22 08:21:09;;;;;;;16.80;4.53;;;9.20;99.90;;;;;;5111756;28;20201;-68
2021/03/22 08:23:49;;;;;;;12.97;3.83;;;9.80;99.90;;;;;;5110783;28;20201;-67
2021/03/22 08:26:22;;;;;;;13.83;5.00;;;9.00;99.90;;;;;;5112315;28;20746;-67
2021/03/22 08:29:03;;;;;;;13.27;4.27;;;8.70;99.90;;;;;;5089667;28;20218;-67
2021/03/22 08:31:38;;;;;;;12.80;3.97;;;8.20;99.90;;;;;;5111684;28;20603;-67
2021/03/22 08:34:09;;;;;;;13.13;3.80;;;7.80;99.90;;;;;;5094026;28;20209;-67
2021/03/22 08:36:47;;;;;;;15.97;3.40;;;7.70;99.90;;;;;;5111619;28;20635;-67
2021/03/22 08:39:23;;;;;;;12.57;3.50;;;7.60;99.90;;;;;;5110786;28;20236;-67
2021/03/22 08:42:05;;;;;;;10.37;4.60;;;7.30;99.90;;;;;;5110827;28;20200;-67
2021/03/22 08:44:36;;;;;;;10.27;3.97;;;7.50;99.90;;;;;;5110834;28;20288;-67
2021/03/22 08:47:35;;;;;;;14.77;4.60;;;7.40;99.90;;;;;;5111225;28;20256;-68
2021/03/22 08:50:06;;;;;;;12.90;3.83;;;7.90;99.90;;;;;;5098565;28;20207;-67
2021/03/22 08:52:34;;;;;;;15.97;4.27;;;8.60;99.90;;;;;;5111488;28;20664;-67
2021/03/22 08:55:07;;;;;;;11.40;3.50;;;9.10;99.90;;;;;;5109617;28;20198;-67
2021/03/22 08:57:39;;;;;;;11.00;3.17;;;8.90;99.90;;;;;;5111692;28;20635;-67
2021/03/22 09:00:23;;;;;;;10.87;3.70;;;9.20;99.90;;;;;;5107358;28;20241;-67
2021/03/22 09:02:54;;;;;;;15.10;4.17;;;9.50;99.90;;;;;;5105693;28;20550;-67
2021/03/22 09:05:24;;;;;;;12.17;4.07;;;9.40;99.90;;;;;;5111797;28;20212;-68
2021/03/22 09:07:51;;;;;;;19.10;4.63;;;9.20;99.90;;;;;;5112302;28;21798;-67
2021/03/22 09:10:36;;;;;;;10.33;3.63;;;8.60;99.90;;;;;;5115450;28;20197;-68
2021/03/22 09:13:16;;;;;;;12.07;3.77;;;8.30;99.90;;;;;;5114607;28;20207;-67
2021/03/22 09:15:57;;;;;;;13.47;4.23;;;8.40;99.90;;;;;;5115307;28;20320;-67
2021/03/22 09:18:23;;;;;;;10.43;3.30;;;8.20;99.90;;;;;;5102641;28;20193;-67
2021/03/22 09:21:19;;;;;;;13.97;4.23;;;7.90;99.90;;;;;;5115198;28;20201;-67
2021/03/22 09:23:47;;;;;;;14.33;4.37;;;8.00;99.90;;;;;;5114658;28;20209;-67
2021/03/22 09:26:14;;;;;;;13.27;3.90;;;8.10;99.90;;;;;;5114992;28;20327;-67
2021/03/22 09:28:47;;;;;;;22.03;5.00;;;8.70;99.90;;;;;;5108502;28;20295;-67
2021/03/22 09:31:47;;;;;;;10.57;3.57;;;8.40;99.90;;;;;;5107187;28;20614;-68
2021/03/22 09:34:42;;;;;;;13.57;4.03;;;8.50;99.90;;;;;;5100188;28;20685;-67
2021/03/22 09:37:38;;;;;;;11.83;3.30;;;9.30;99.90;;;;;;5108387;28;20680;-67
2021/03/22 09:40:07;;;;;;;12.30;3.77;;;9.70;99.90;;;;;;5104563;28;20646;-67
2021/03/22 09:42:34;;;;;;;10.10;3.87;;;10.10;99.90;;;;;;5107924;28;20213;-67
2021/03/22 09:45:20;;;;;;;11.23;3.80;;;9.80;99.90;;;;;;5115141;28;20204;-67
2021/03/22 09:48:20;;;;;;;11.87;3.60;;;9.30;99.90;;;;;;5106085;28;20228;-67
2021/03/22 09:50:48;;;;;;;11.67;4.77;;;9.00;99.90;;;;;;5099189;28;20216;-67
2021/03/22 09:53:22;;;;;;;10.47;3.23;;;8.80;99.90;;;;;;5112853;28;20193;-67
2021/03/22 09:56:04;;;;;;;14.00;3.60;;;9.40;99.90;;;;;;5114482;28;20254;-67
2021/03/22 09:58:38;;;;;;;12.57;3.30;;;9.70;99.90;;;;;;5105952;28;20193;-68
2021/03/22 10:01:12;;;;;;;10.83;3.27;;;9.80;99.90;;;;;;5113412;28;20230;-68
2021/03/22 10:04:11;;;;;;;13.13;3.40;;;9.40;99.90;;;;;;5114781;28;20280;-67
2021/03/22 10:06:56;;;;;;;13.97;3.27;;;9.20;99.90;;;;;;5095519;28;20251;-67
2021/03/22 10:09:27;;;;;;;8.23;3.40;;;9.20;99.90;;;;;;5101186;28;20661;-67
2021/03/22 10:11:56;;;;;;;11.23;3.73;;;8.90;99.90;;;;;;5114334;28;20216;-67
2021/03/22 10:14:33;;;;;;;9.70;3.57;;;9.30;99.90;;;;;;5103283;28;20213;-68
2021/03/22 10:17:01;;;;;;;13.03;3.73;;;10.60;99.90;;;;;;5094772;28;20283;-67
2021/03/22 10:19:30;;;;;;;7.37;3.13;;;10.70;99.90;;;;;;5109486;28;20804;-68
2021/03/22 10:22:00;;;;;;;11.17;3.37;;;9.90;99.90;;;;;;5113026;28;20204;-68
2021/03/22 10:24:34;;;;;;;9.37;3.67;;;9.30;99.90;;;;;;5113998;28;20562;-68
2021/03/22 10:27:01;;;;;;;9.77;3.70;;;9.20;99.90;;;;;;5100534;28;20230;-67
2021/03/22 10:29:32;;;;;;;9.83;3.40;;;8.90;99.90;;;;;;5113512;28;20613;-67
2021/03/22 10:32:01;;;;;;;11.60;3.90;;;9.40;99.90;;;;;;5114019;28;20209;-67
2021/03/22 10:34:31;;;;;;;8.73;3.87;;;9.80;99.90;;;;;;5099240;28;20208;-67
2021/03/22 10:37:05;;;;;;;9.23;3.23;;;10.10;99.90;;;;;;5113232;28;20205;-68
2021/03/22 10:39:35;;;;;;;11.43;3.70;;;9.70;99.90;;;;;;5112867;28;20204;-67
2021/03/22 10:42:04;;;;;;;9.17;3.50;;;9.70;99.90;;;;;;5113050;28;20208;-67
2021/03/22 10:44:36;;;;;;;6.87;3.37;;;9.60;99.90;;;;;;5113362;28;20643;-67
2021/03/22 10:47:06;;;;;;;8.10;2.80;;;10.60;99.90;;;;;;5112514;28;20315;-68
2021/03/22 10:49:32;;;;;;;9.67;3.10;;;10.80;99.90;;;;;;5112991;28;20197;-68
2021/03/22 10:52:01;;;;;;;9.00;3.73;;;10.60;99.90;;;;;;5112323;28;20624;-68
2021/03/22 10:54:41;;;;;;;9.67;3.67;;;10.30;99.90;;;;;;5113463;28;20708;-67
2021/03/22 10:57:16;;;;;;;8.33;3.17;;;10.70;99.90;;;;;;5095471;28;20217;-68
2021/03/22 10:59:46;;;;;;;11.50;3.20;;;11.00;99.90;;;;;;5092444;28;20204;-68
2021/03/22 11:02:27;;;;;;;11.13;3.97;;;10.80;99.90;;;;;;5102040;28;20209;-68
2021/03/22 11:04:55;;;;;;;8.37;2.87;;;10.30;99.90;;;;;;5111564;28;20225;-66
2021/03/22 11:07:24;;;;;;;10.17;3.27;;;10.00;99.90;;;;;;5104844;28;20232;-66
2021/03/22 11:09:59;;;;;;;11.13;3.30;;;10.10;99.90;;;;;;5098143;28;20247;-66
2021/03/22 11:12:28;;;;;;;8.33;2.83;;;10.00;99.90;;;;;;5104888;28;20219;-66
2021/03/22 11:15:00;;;;;;;5.23;2.97;;;10.50;99.90;;;;;;5112980;28;20207;-68
2021/03/22 11:17:27;;;;;;;9.63;3.00;;;10.50;99.90;;;;;;5110883;28;20216;-68
2021/03/22 11:19:55;;;;;;;7.83;3.10;;;10.50;99.90;;;;;;5107110;28;20202;-66
2021/03/22 11:22:32;;;;;;;9.63;3.33;;;10.70;99.90;;;;;;5112183;28;20201;-66
2021/03/22 11:24:59;;;;;;;13.70;3.40;;;11.60;99.90;;;;;;5109569;28;20193;-66
2021/03/22 11:27:49;;;;;;;5.30;2.83;;;11.40;99.90;;;;;;5110637;28;20213;-66
2021/03/22 11:30:17;;;;;;;5.87;2.73;;;10.40;99.90;;;;;;5113055;28;20212;-66
2021/03/22 11:32:47;;;;;;;6.60;3.00;;;10.10;99.90;;;;;;5113190;28;20201;-66
2021/03/22 11:35:24;;;;;;;8.00;2.73;;;10.40;99.90;;;;;;5112618;28;20205;-66
2021/03/22 11:37:53;;;;;;;8.63;3.30;;;10.70;99.90;;;;;;5106919;28;20310;-68
2021/03/22 11:40:21;;;;;;;10.23;3.50;;;10.50;99.90;;;;;;5105036;28;20331;-68
2021/03/22 11:42:55;;;;;;;11.77;3.60;;;10.90;99.90;;;;;;5112659;28;20201;-67
2021/03/22 11:45:33;;;;;;;9.63;3.33;;;10.70;99.90;;;;;;5112701;28;20204;-67
2021/03/22 11:48:00;;;;;;;10.00;3.37;;;10.60;99.90;;;;;;5112424;28;20220;-68
2021/03/22 11:50:40;;;;;;;12.57;3.40;;;10.70;99.90;;;;;;5113085;28;20204;-68
2021/03/22 11:53:10;;;;;;;8.73;3.50;;;10.80;99.90;;;;;;5112757;28;20208;-68
2021/03/22 11:55:41;;;;;;;8.50;2.83;;;10.70;99.90;;;;;;5112846;28;20247;-67
2021/03/22 11:58:30;;;;;;;9.67;2.97;;;10.60;99.90;;;;;;5098275;28;20658;-68
2021/03/22 12:01:19;;;;;;;7.57;3.23;;;10.30;99.90;;;;;;5113041;28;20565;-68
2021/03/22 12:03:46;;;;;;;5.90;2.60;;;10.00;99.90;;;;;;5112886;28;20661;-66
2021/03/22 12:06:16;;;;;;;9.90;3.00;;;10.30;99.90;;;;;;5112669;28;20525;-67
2021/03/22 12:08:45;;;;;;;10.27;3.97;;;10.40;99.90;;;;;;5112067;28;20654;-68
2021/03/22 12:11:15;;;;;;;6.70;2.93;;;10.70;99.90;;;;;;5112876;28;20299;-68
2021/03/22 12:13:42;;;;;;;5.87;2.70;;;11.10;99.90;;;;;;5111272;28;20642;-68
2021/03/22 12:16:15;;;;;;;7.80;3.27;;;11.60;99.90;;;;;;5112137;28;20209;-68
2021/03/22 12:18:43;;;;;;;10.57;3.67;;;11.20;99.90;;;;;;5077611;28;20199;-69
2021/03/22 12:21:12;;;;;;;10.13;4.90;;;11.30;99.90;;;;;;5111986;28;20213;-68
2021/03/22 12:23:38;;;;;;;10.63;5.30;;;11.10;99.90;;;;;;5108304;28;20610;-68
2021/03/22 12:26:06;;;;;;;9.23;3.43;;;10.90;99.90;;;;;;5105174;28;20202;-68
2021/03/22 12:28:33;;;;;;;10.10;3.83;;;10.90;99.90;;;;;;5095207;28;20694;-68
2021/03/22 12:31:00;;;;;;;7.37;2.80;;;10.90;99.90;;;;;;5097854;28;20298;-69
2021/03/22 12:33:30;;;;;;;5.97;2.70;;;11.00;99.90;;;;;;5106822;28;20212;-68
2021/03/22 12:35:58;;;;;;;7.10;2.90;;;11.00;99.90;;;;;;5097636;28;20211;-68
2021/03/22 12:38:25;;;;;;;9.17;3.10;;;11.00;99.90;;;;;;5106153;28;20248;-68
2021/03/22 12:40:52;;;;;;;7.53;3.33;;;10.90;99.90;;;;;;5104206;28;20254;-68
2021/03/22 12:43:25;;;;;;;7.20;3.07;;;10.40;99.90;;;;;;5101877;28;20201;-68
2021/03/22 12:45:52;;;;;;;5.87;2.63;;;10.30;99.90;;;;;;5111421;28;20228;-68
2021/03/22 12:48:20;;;;;;;5.07;2.50;;;10.40;99.90;;;;;;5109482;28;20578;-68
2021/03/22 12:50:49;;;;;;;7.47;2.83;;;10.60;99.90;;;;;;5109877;28;20235;-68
2021/03/22 12:53:16;;;;;;;9.37;2.67;;;10.50;99.90;;;;;;5106757;28;20220;-68
2021/03/22 12:55:43;;;;;;;6.93;2.67;;;10.80;99.90;;;;;;5110344;28;20215;-68
2021/03/22 12:58:14;;;;;;;6.83;2.83;;;10.80;99.90;;;;;;5108217;28;20197;-68
2021/03/22 13:00:42;;;;;;;6.20;2.50;;;10.90;99.90;;;;;;5109869;28;20204;-68
2021/03/22 13:03:11;;;;;;;6.17;2.80;;;10.90;99.90;;;;;;5108804;28;20212;-67
2021/03/22 13:05:38;;;;;;;4.43;2.17;;;10.60;99.90;;;;;;5103197;28;20247;-68
2021/03/22 13:08:05;;;;;;;7.83;2.90;;;10.40;99.90;;;;;;5107567;28;20232;-68
2021/03/22 13:10:33;;;;;;;8.27;2.37;;;10.50;99.90;;;;;;5106009;28;20269;-68
2021/03/22 13:13:01;;;;;;;7.57;2.60;;;10.50;99.90;;;;;;5106216;28;20546;-68
2021/03/22 13:15:33;;;;;;;9.37;2.90;;;10.70;99.90;;;;;;5106705;28;20259;-68